sensor_id;sensor_type;location;lat;lon;timestamp;P1;durP1;ratioP1;P2;durP2;ratioP2
74510;SDS011;62991;50.040;18.400;2023-02-08T00:02:33;33.00;;;12.65;;
74510;SDS011;62991;50.040;18.400;2023-02-08T00:05:34;36.95;;;14.55;;
74510;SDS011;62991;50.040;18.400;2023-02-08T00:08:35;39.58;;;13.88;;
74510;SDS011;62991;50.040;18.400;2023-02-08T00:11:37;27.00;;;12.55;;
74510;SDS011;62991;50.040;18.400;2023-02-08T00:14:37;33.95;;;12.68;;
74510;SDS011;62991;50.040;18.400;2023-02-08T00:17:38;29.80;;;13.65;;
74510;SDS011;62991;50.040;18.400;2023-02-08T00:20:40;35.35;;;13.40;;
74510;SDS011;62991;50.040;18.400;2023-02-08T00:23:41;39.38;;;15.15;;
74510;SDS011;62991;50.040;18.400;2023-02-08T00:26:42;35.20;;;14.23;;
74510;SDS011;62991;50.040;18.400;2023-02-08T00:29:43;37.15;;;15.27;;
74510;SDS011;62991;50.040;18.400;2023-02-08T00:32:43;35.53;;;13.70;;
74510;SDS011;62991;50.040;18.400;2023-02-08T00:35:44;48.15;;;14.68;;
74510;SDS011;62991;50.040;18.400;2023-02-08T00:38:45;35.63;;;14.05;;
74510;SDS011;62991;50.040;18.400;2023-02-08T00:41:46;43.70;;;15.48;;
74510;SDS011;62991;50.040;18.400;2023-02-08T00:44:47;30.95;;;13.82;;
74510;SDS011;62991;50.040;18.400;2023-02-08T00:47:47;32.25;;;14.60;;
74510;SDS011;62991;50.040;18.400;2023-02-08T00:50:58;40.97;;;17.02;;
74510;SDS011;62991;50.040;18.400;2023-02-08T00:54:13;32.22;;;15.07;;
74510;SDS011;62991;50.040;18.400;2023-02-08T00:57:14;33.00;;;12.65;;
74510;SDS011;62991;50.040;18.400;2023-02-08T01:00:15;42.10;;;15.55;;
74510;SDS011;62991;50.040;18.400;2023-02-08T01:03:16;29.00;;;15.40;;
74510;SDS011;62991;50.040;18.400;2023-02-08T01:06:17;44.40;;;14.73;;
74510;SDS011;62991;50.040;18.400;2023-02-08T01:09:17;34.72;;;13.27;;
74510;SDS011;62991;50.040;18.400;2023-02-08T01:12:18;40.30;;;14.30;;
74510;SDS011;62991;50.040;18.400;2023-02-08T01:15:19;34.67;;;14.40;;
74510;SDS011;62991;50.040;18.400;2023-02-08T01:18:19;43.08;;;16.20;;
74510;SDS011;62991;50.040;18.400;2023-02-08T01:21:21;42.42;;;15.70;;
74510;SDS011;62991;50.040;18.400;2023-02-08T01:24:24;33.22;;;16.10;;
74510;SDS011;62991;50.040;18.400;2023-02-08T01:27:24;38.88;;;15.60;;
74510;SDS011;62991;50.040;18.400;2023-02-08T01:30:25;41.00;;;14.30;;
74510;SDS011;62991;50.040;18.400;2023-02-08T01:33:26;31.80;;;13.65;;
74510;SDS011;62991;50.040;18.400;2023-02-08T01:36:27;39.10;;;13.40;;
74510;SDS011;62991;50.040;18.400;2023-02-08T01:39:29;36.92;;;14.68;;
74510;SDS011;62991;50.040;18.400;2023-02-08T01:42:30;32.47;;;12.43;;
74510;SDS011;62991;50.040;18.400;2023-02-08T01:45:30;50.67;;;16.45;;
74510;SDS011;62991;50.040;18.400;2023-02-08T01:48:38;39.30;;;14.15;;
74510;SDS011;62991;50.040;18.400;2023-02-08T01:51:41;37.85;;;12.20;;
74510;SDS011;62991;50.040;18.400;2023-02-08T01:57:56;29.40;;;11.85;;
74510;SDS011;62991;50.040;18.400;2023-02-08T02:01:01;28.58;;;10.75;;
74510;SDS011;62991;50.040;18.400;2023-02-08T02:04:03;15.90;;;9.40;;
74510;SDS011;62991;50.040;18.400;2023-02-08T02:07:05;22.30;;;10.25;;
74510;SDS011;62991;50.040;18.400;2023-02-08T02:10:16;24.25;;;12.10;;
74510;SDS011;62991;50.040;18.400;2023-02-08T02:13:25;27.33;;;11.32;;
74510;SDS011;62991;50.040;18.400;2023-02-08T02:16:27;34.97;;;10.60;;
74510;SDS011;62991;50.040;18.400;2023-02-08T02:39:28;20.58;;;10.77;;
74510;SDS011;62991;50.040;18.400;2023-02-08T02:52:41;23.67;;;11.77;;
74510;SDS011;62991;50.040;18.400;2023-02-08T02:55:53;27.80;;;12.00;;
74510;SDS011;62991;50.040;18.400;2023-02-08T02:59:00;18.48;;;8.82;;
74510;SDS011;62991;50.040;18.400;2023-02-08T03:02:04;22.90;;;10.02;;
74510;SDS011;62991;50.040;18.400;2023-02-08T03:05:06;29.27;;;9.98;;
74510;SDS011;62991;50.040;18.400;2023-02-08T03:24:39;22.27;;;8.73;;
74510;SDS011;62991;50.040;18.400;2023-02-08T03:28:06;27.73;;;11.35;;
74510;SDS011;62991;50.040;18.400;2023-02-08T03:31:26;23.38;;;8.45;;
74510;SDS011;62991;50.040;18.400;2023-02-08T03:41:00;21.50;;;10.15;;
74510;SDS011;62991;50.040;18.400;2023-02-08T03:47:39;20.80;;;10.88;;
74510;SDS011;62991;50.040;18.400;2023-02-08T03:50:45;15.80;;;8.07;;
74510;SDS011;62991;50.040;18.400;2023-02-08T03:53:48;24.48;;;10.10;;
74510;SDS011;62991;50.040;18.400;2023-02-08T03:57:07;20.50;;;9.55;;
74510;SDS011;62991;50.040;18.400;2023-02-08T04:00:16;23.13;;;9.55;;
74510;SDS011;62991;50.040;18.400;2023-02-08T04:03:25;23.27;;;12.55;;
74510;SDS011;62991;50.040;18.400;2023-02-08T04:06:27;17.90;;;10.63;;
74510;SDS011;62991;50.040;18.400;2023-02-08T04:09:28;19.38;;;9.60;;
74510;SDS011;62991;50.040;18.400;2023-02-08T04:12:29;30.45;;;8.00;;
74510;SDS011;62991;50.040;18.400;2023-02-08T04:15:30;16.75;;;9.40;;
74510;SDS011;62991;50.040;18.400;2023-02-08T04:18:31;29.08;;;10.18;;
74510;SDS011;62991;50.040;18.400;2023-02-08T04:21:31;28.25;;;9.90;;
74510;SDS011;62991;50.040;18.400;2023-02-08T04:24:32;19.95;;;9.23;;
74510;SDS011;62991;50.040;18.400;2023-02-08T04:27:33;29.55;;;10.55;;
74510;SDS011;62991;50.040;18.400;2023-02-08T04:30:34;21.05;;;9.68;;
74510;SDS011;62991;50.040;18.400;2023-02-08T04:33:35;24.77;;;10.55;;
74510;SDS011;62991;50.040;18.400;2023-02-08T04:36:35;20.27;;;9.25;;
74510;SDS011;62991;50.040;18.400;2023-02-08T04:39:36;18.60;;;8.35;;
74510;SDS011;62991;50.040;18.400;2023-02-08T04:42:37;20.55;;;8.52;;
74510;SDS011;62991;50.040;18.400;2023-02-08T04:45:38;24.55;;;12.23;;
74510;SDS011;62991;50.040;18.400;2023-02-08T04:48:38;29.20;;;10.23;;
74510;SDS011;62991;50.040;18.400;2023-02-08T04:51:39;16.08;;;7.30;;
74510;SDS011;62991;50.040;18.400;2023-02-08T04:54:40;26.60;;;10.10;;
74510;SDS011;62991;50.040;18.400;2023-02-08T04:57:40;24.30;;;10.65;;
74510;SDS011;62991;50.040;18.400;2023-02-08T05:00:41;21.25;;;9.40;;
74510;SDS011;62991;50.040;18.400;2023-02-08T05:03:42;24.05;;;10.35;;
74510;SDS011;62991;50.040;18.400;2023-02-08T05:06:42;35.25;;;12.27;;
74510;SDS011;62991;50.040;18.400;2023-02-08T05:09:43;31.48;;;13.27;;
74510;SDS011;62991;50.040;18.400;2023-02-08T05:12:44;23.00;;;10.55;;
74510;SDS011;62991;50.040;18.400;2023-02-08T05:15:45;29.23;;;10.50;;
74510;SDS011;62991;50.040;18.400;2023-02-08T05:18:46;32.08;;;9.85;;
74510;SDS011;62991;50.040;18.400;2023-02-08T05:21:46;31.17;;;12.75;;
74510;SDS011;62991;50.040;18.400;2023-02-08T05:24:47;43.65;;;14.52;;
74510;SDS011;62991;50.040;18.400;2023-02-08T05:27:48;47.83;;;16.38;;
74510;SDS011;62991;50.040;18.400;2023-02-08T05:30:48;26.83;;;11.52;;
74510;SDS011;62991;50.040;18.400;2023-02-08T05:33:50;33.78;;;12.63;;
74510;SDS011;62991;50.040;18.400;2023-02-08T05:36:52;23.95;;;11.95;;
74510;SDS011;62991;50.040;18.400;2023-02-08T05:39:52;29.48;;;12.88;;
74510;SDS011;62991;50.040;18.400;2023-02-08T05:42:53;35.10;;;13.07;;
74510;SDS011;62991;50.040;18.400;2023-02-08T05:45:54;43.45;;;16.42;;
74510;SDS011;62991;50.040;18.400;2023-02-08T05:48:55;39.75;;;16.30;;
74510;SDS011;62991;50.040;18.400;2023-02-08T05:51:55;33.92;;;14.07;;
74510;SDS011;62991;50.040;18.400;2023-02-08T05:54:56;58.08;;;16.92;;
74510;SDS011;62991;50.040;18.400;2023-02-08T05:57:57;37.00;;;15.18;;
74510;SDS011;62991;50.040;18.400;2023-02-08T06:00:57;36.15;;;15.30;;
74510;SDS011;62991;50.040;18.400;2023-02-08T06:03:58;51.65;;;17.73;;
74510;SDS011;62991;50.040;18.400;2023-02-08T06:06:59;50.30;;;17.38;;
74510;SDS011;62991;50.040;18.400;2023-02-08T06:10:00;45.45;;;18.35;;
74510;SDS011;62991;50.040;18.400;2023-02-08T06:13:01;49.20;;;19.58;;
74510;SDS011;62991;50.040;18.400;2023-02-08T06:16:01;49.05;;;20.63;;
74510;SDS011;62991;50.040;18.400;2023-02-08T06:19:02;38.20;;;16.38;;
74510;SDS011;62991;50.040;18.400;2023-02-08T06:22:03;47.17;;;16.80;;
74510;SDS011;62991;50.040;18.400;2023-02-08T06:25:04;42.35;;;15.07;;
74510;SDS011;62991;50.040;18.400;2023-02-08T06:28:04;36.45;;;15.93;;
74510;SDS011;62991;50.040;18.400;2023-02-08T06:31:05;38.03;;;13.95;;
74510;SDS011;62991;50.040;18.400;2023-02-08T06:34:06;31.10;;;13.23;;
74510;SDS011;62991;50.040;18.400;2023-02-08T06:37:07;32.95;;;15.20;;
74510;SDS011;62991;50.040;18.400;2023-02-08T06:40:08;44.97;;;17.13;;
74510;SDS011;62991;50.040;18.400;2023-02-08T06:43:09;36.88;;;15.63;;
74510;SDS011;62991;50.040;18.400;2023-02-08T06:46:09;40.47;;;16.77;;
74510;SDS011;62991;50.040;18.400;2023-02-08T06:49:10;30.67;;;13.57;;
74510;SDS011;62991;50.040;18.400;2023-02-08T06:52:11;45.08;;;14.90;;
74510;SDS011;62991;50.040;18.400;2023-02-08T06:55:11;38.58;;;13.50;;
74510;SDS011;62991;50.040;18.400;2023-02-08T06:58:12;37.20;;;15.15;;
74510;SDS011;62991;50.040;18.400;2023-02-08T07:01:13;36.88;;;15.00;;
74510;SDS011;62991;50.040;18.400;2023-02-08T07:04:14;30.67;;;14.38;;
74510;SDS011;62991;50.040;18.400;2023-02-08T07:07:15;23.98;;;10.18;;
74510;SDS011;62991;50.040;18.400;2023-02-08T07:10:16;27.83;;;11.55;;
74510;SDS011;62991;50.040;18.400;2023-02-08T07:13:17;25.67;;;11.88;;
74510;SDS011;62991;50.040;18.400;2023-02-08T07:16:18;32.47;;;11.88;;
74510;SDS011;62991;50.040;18.400;2023-02-08T07:19:19;26.30;;;12.07;;
74510;SDS011;62991;50.040;18.400;2023-02-08T07:22:20;30.08;;;12.40;;
74510;SDS011;62991;50.040;18.400;2023-02-08T07:25:20;31.83;;;12.80;;
74510;SDS011;62991;50.040;18.400;2023-02-08T07:28:21;36.90;;;13.68;;
74510;SDS011;62991;50.040;18.400;2023-02-08T07:31:22;30.30;;;11.57;;
74510;SDS011;62991;50.040;18.400;2023-02-08T07:34:22;21.95;;;11.88;;
74510;SDS011;62991;50.040;18.400;2023-02-08T07:37:24;36.67;;;13.02;;
74510;SDS011;62991;50.040;18.400;2023-02-08T07:40:25;27.38;;;12.77;;
74510;SDS011;62991;50.040;18.400;2023-02-08T07:43:25;26.02;;;13.90;;
74510;SDS011;62991;50.040;18.400;2023-02-08T07:46:26;33.47;;;12.35;;
74510;SDS011;62991;50.040;18.400;2023-02-08T07:49:27;28.02;;;11.65;;
74510;SDS011;62991;50.040;18.400;2023-02-08T07:52:28;26.67;;;10.93;;
74510;SDS011;62991;50.040;18.400;2023-02-08T07:55:28;22.20;;;10.45;;
74510;SDS011;62991;50.040;18.400;2023-02-08T07:58:29;33.85;;;13.30;;
74510;SDS011;62991;50.040;18.400;2023-02-08T08:01:30;32.63;;;11.25;;
74510;SDS011;62991;50.040;18.400;2023-02-08T08:04:30;32.65;;;11.18;;
74510;SDS011;62991;50.040;18.400;2023-02-08T08:07:31;21.67;;;9.07;;
74510;SDS011;62991;50.040;18.400;2023-02-08T08:10:32;11.90;;;7.05;;
74510;SDS011;62991;50.040;18.400;2023-02-08T08:13:33;21.90;;;8.93;;
74510;SDS011;62991;50.040;18.400;2023-02-08T08:16:33;24.48;;;9.10;;
74510;SDS011;62991;50.040;18.400;2023-02-08T08:19:34;19.45;;;8.10;;
74510;SDS011;62991;50.040;18.400;2023-02-08T08:22:35;26.73;;;8.68;;
74510;SDS011;62991;50.040;18.400;2023-02-08T08:25:36;31.45;;;9.60;;
74510;SDS011;62991;50.040;18.400;2023-02-08T08:28:37;26.17;;;8.13;;
74510;SDS011;62991;50.040;18.400;2023-02-08T08:31:41;18.58;;;8.07;;
74510;SDS011;62991;50.040;18.400;2023-02-08T08:34:42;12.60;;;6.55;;
74510;SDS011;62991;50.040;18.400;2023-02-08T08:37:43;16.27;;;6.63;;
74510;SDS011;62991;50.040;18.400;2023-02-08T08:40:44;15.68;;;6.60;;
74510;SDS011;62991;50.040;18.400;2023-02-08T08:43:44;23.55;;;8.15;;
74510;SDS011;62991;50.040;18.400;2023-02-08T08:46:45;20.10;;;10.20;;
74510;SDS011;62991;50.040;18.400;2023-02-08T08:49:46;18.88;;;9.45;;
74510;SDS011;62991;50.040;18.400;2023-02-08T08:52:46;23.30;;;9.73;;
74510;SDS011;62991;50.040;18.400;2023-02-08T08:55:47;14.82;;;6.30;;
74510;SDS011;62991;50.040;18.400;2023-02-08T08:58:48;24.67;;;11.02;;
74510;SDS011;62991;50.040;18.400;2023-02-08T09:01:48;22.40;;;9.38;;
74510;SDS011;62991;50.040;18.400;2023-02-08T09:04:49;19.85;;;8.93;;
74510;SDS011;62991;50.040;18.400;2023-02-08T09:07:50;27.40;;;9.80;;
74510;SDS011;62991;50.040;18.400;2023-02-08T09:10:50;53.60;;;18.90;;
74510;SDS011;62991;50.040;18.400;2023-02-08T09:13:51;29.70;;;12.27;;
74510;SDS011;62991;50.040;18.400;2023-02-08T09:16:55;37.03;;;15.75;;
74510;SDS011;62991;50.040;18.400;2023-02-08T09:19:55;73.05;;;25.00;;
74510;SDS011;62991;50.040;18.400;2023-02-08T09:22:56;32.15;;;13.52;;
74510;SDS011;62991;50.040;18.400;2023-02-08T09:25:57;30.73;;;11.57;;
74510;SDS011;62991;50.040;18.400;2023-02-08T09:28:58;27.70;;;10.20;;
74510;SDS011;62991;50.040;18.400;2023-02-08T09:31:59;32.83;;;11.40;;
74510;SDS011;62991;50.040;18.400;2023-02-08T09:35:00;31.23;;;12.15;;
74510;SDS011;62991;50.040;18.400;2023-02-08T09:38:01;27.88;;;11.00;;
74510;SDS011;62991;50.040;18.400;2023-02-08T09:47:35;26.30;;;10.60;;
74510;SDS011;62991;50.040;18.400;2023-02-08T09:50:41;19.70;;;10.05;;
74510;SDS011;62991;50.040;18.400;2023-02-08T09:53:49;25.40;;;11.07;;
74510;SDS011;62991;50.040;18.400;2023-02-08T09:56:55;20.20;;;9.15;;
74510;SDS011;62991;50.040;18.400;2023-02-08T10:00:01;23.83;;;8.50;;
74510;SDS011;62991;50.040;18.400;2023-02-08T10:03:08;19.27;;;9.45;;
74510;SDS011;62991;50.040;18.400;2023-02-08T10:06:30;17.15;;;9.48;;
74510;SDS011;62991;50.040;18.400;2023-02-08T10:09:31;18.80;;;9.25;;
74510;SDS011;62991;50.040;18.400;2023-02-08T10:16:07;19.08;;;7.35;;
74510;SDS011;62991;50.040;18.400;2023-02-08T10:32:25;23.35;;;10.20;;
74510;SDS011;62991;50.040;18.400;2023-02-08T10:35:43;30.02;;;11.07;;
74510;SDS011;62991;50.040;18.400;2023-02-08T10:38:48;25.25;;;10.25;;
74510;SDS011;62991;50.040;18.400;2023-02-08T10:41:51;29.85;;;10.68;;
74510;SDS011;62991;50.040;18.400;2023-02-08T10:48:02;21.40;;;8.02;;
74510;SDS011;62991;50.040;18.400;2023-02-08T10:51:11;33.72;;;10.20;;
74510;SDS011;62991;50.040;18.400;2023-02-08T10:54:17;19.38;;;8.70;;
74510;SDS011;62991;50.040;18.400;2023-02-08T10:57:21;29.80;;;9.98;;
74510;SDS011;62991;50.040;18.400;2023-02-08T11:00:26;20.30;;;9.57;;
74510;SDS011;62991;50.040;18.400;2023-02-08T11:03:29;25.77;;;9.45;;
74510;SDS011;62991;50.040;18.400;2023-02-08T11:06:30;19.65;;;9.45;;
74510;SDS011;62991;50.040;18.400;2023-02-08T11:09:31;33.13;;;12.55;;
74510;SDS011;62991;50.040;18.400;2023-02-08T11:12:31;27.15;;;11.45;;
74510;SDS011;62991;50.040;18.400;2023-02-08T11:18:39;21.10;;;8.77;;
74510;SDS011;62991;50.040;18.400;2023-02-08T11:21:48;15.70;;;8.23;;
74510;SDS011;62991;50.040;18.400;2023-02-08T11:24:54;20.95;;;9.82;;
74510;SDS011;62991;50.040;18.400;2023-02-08T11:27:57;22.95;;;10.68;;
74510;SDS011;62991;50.040;18.400;2023-02-08T11:31:00;23.70;;;9.98;;
74510;SDS011;62991;50.040;18.400;2023-02-08T11:34:08;20.67;;;9.43;;
74510;SDS011;62991;50.040;18.400;2023-02-08T11:37:14;23.25;;;8.90;;
74510;SDS011;62991;50.040;18.400;2023-02-08T11:40:28;22.27;;;9.13;;
74510;SDS011;62991;50.040;18.400;2023-02-08T11:43:33;27.30;;;9.68;;
74510;SDS011;62991;50.040;18.400;2023-02-08T11:46:35;32.47;;;11.70;;
74510;SDS011;62991;50.040;18.400;2023-02-08T11:52:41;102.07;;;29.48;;
74510;SDS011;62991;50.040;18.400;2023-02-08T11:55:45;138.75;;;37.38;;
74510;SDS011;62991;50.040;18.400;2023-02-08T11:59:18;182.90;;;46.40;;
74510;SDS011;62991;50.040;18.400;2023-02-08T12:02:25;39.88;;;14.40;;
74510;SDS011;62991;50.040;18.400;2023-02-08T12:05:35;30.60;;;12.38;;
74510;SDS011;62991;50.040;18.400;2023-02-08T12:09:06;28.73;;;11.32;;
74510;SDS011;62991;50.040;18.400;2023-02-08T12:12:47;30.13;;;9.73;;
74510;SDS011;62991;50.040;18.400;2023-02-08T12:22:36;29.25;;;11.98;;
74510;SDS011;62991;50.040;18.400;2023-02-08T12:39:04;28.05;;;11.77;;
74510;SDS011;62991;50.040;18.400;2023-02-08T12:43:25;24.45;;;11.27;;
74510;SDS011;62991;50.040;18.400;2023-02-08T12:53:29;33.92;;;14.98;;
74510;SDS011;62991;50.040;18.400;2023-02-08T12:56:37;31.50;;;15.13;;
74510;SDS011;62991;50.040;18.400;2023-02-08T12:59:46;25.40;;;13.30;;
74510;SDS011;62991;50.040;18.400;2023-02-08T13:06:20;28.55;;;13.50;;
74510;SDS011;62991;50.040;18.400;2023-02-08T13:12:35;30.65;;;13.65;;
74510;SDS011;62991;50.040;18.400;2023-02-08T13:15:45;30.95;;;13.32;;
74510;SDS011;62991;50.040;18.400;2023-02-08T13:19:35;27.27;;;13.07;;
74510;SDS011;62991;50.040;18.400;2023-02-08T13:22:22;26.50;;;12.73;;
74510;SDS011;62991;50.040;18.400;2023-02-08T13:25:31;27.80;;;13.98;;
74510;SDS011;62991;50.040;18.400;2023-02-08T13:28:45;26.63;;;13.15;;
74510;SDS011;62991;50.040;18.400;2023-02-08T13:31:53;28.75;;;13.07;;
74510;SDS011;62991;50.040;18.400;2023-02-08T13:35:18;29.35;;;12.73;;
74510;SDS011;62991;50.040;18.400;2023-02-08T13:38:30;29.45;;;13.05;;
74510;SDS011;62991;50.040;18.400;2023-02-08T13:41:34;28.98;;;12.10;;
74510;SDS011;62991;50.040;18.400;2023-02-08T13:44:36;29.92;;;13.32;;
74510;SDS011;62991;50.040;18.400;2023-02-08T13:47:46;25.52;;;12.82;;
74510;SDS011;62991;50.040;18.400;2023-02-08T13:50:49;27.75;;;12.20;;
74510;SDS011;62991;50.040;18.400;2023-02-08T13:56:56;37.95;;;13.40;;
74510;SDS011;62991;50.040;18.400;2023-02-08T14:00:20;29.45;;;12.63;;
74510;SDS011;62991;50.040;18.400;2023-02-08T14:03:25;27.70;;;14.05;;
74510;SDS011;62991;50.040;18.400;2023-02-08T14:06:34;23.50;;;10.98;;
74510;SDS011;62991;50.040;18.400;2023-02-08T14:10:27;27.55;;;13.15;;
74510;SDS011;62991;50.040;18.400;2023-02-08T14:16:35;29.48;;;12.85;;
74510;SDS011;62991;50.040;18.400;2023-02-08T14:19:38;26.75;;;12.90;;
74510;SDS011;62991;50.040;18.400;2023-02-08T14:22:46;32.63;;;14.68;;
74510;SDS011;62991;50.040;18.400;2023-02-08T14:25:50;29.88;;;12.77;;
74510;SDS011;62991;50.040;18.400;2023-02-08T14:28:54;26.25;;;12.73;;
74510;SDS011;62991;50.040;18.400;2023-02-08T14:31:58;28.73;;;13.38;;
74510;SDS011;62991;50.040;18.400;2023-02-08T14:35:04;29.73;;;12.77;;
74510;SDS011;62991;50.040;18.400;2023-02-08T14:54:16;27.70;;;12.93;;
74510;SDS011;62991;50.040;18.400;2023-02-08T14:57:24;25.48;;;11.93;;
74510;SDS011;62991;50.040;18.400;2023-02-08T15:00:29;31.50;;;13.82;;
74510;SDS011;62991;50.040;18.400;2023-02-08T15:03:34;34.53;;;14.75;;
74510;SDS011;62991;50.040;18.400;2023-02-08T15:09:36;39.72;;;15.73;;
74510;SDS011;62991;50.040;18.400;2023-02-08T15:12:39;84.93;;;30.20;;
74510;SDS011;62991;50.040;18.400;2023-02-08T15:15:44;63.97;;;25.67;;
74510;SDS011;62991;50.040;18.400;2023-02-08T15:18:49;28.65;;;12.95;;
74510;SDS011;62991;50.040;18.400;2023-02-08T15:21:51;27.38;;;10.68;;
74510;SDS011;62991;50.040;18.400;2023-02-08T15:24:56;29.77;;;11.35;;
74510;SDS011;62991;50.040;18.400;2023-02-08T15:28:15;26.17;;;10.52;;
74510;SDS011;62991;50.040;18.400;2023-02-08T15:31:19;29.10;;;10.98;;
74510;SDS011;62991;50.040;18.400;2023-02-08T15:34:24;32.08;;;11.80;;
74510;SDS011;62991;50.040;18.400;2023-02-08T15:37:26;27.65;;;10.70;;
74510;SDS011;62991;50.040;18.400;2023-02-08T15:40:33;25.63;;;10.00;;
74510;SDS011;62991;50.040;18.400;2023-02-08T15:43:35;30.35;;;10.77;;
74510;SDS011;62991;50.040;18.400;2023-02-08T15:46:37;26.55;;;9.48;;
74510;SDS011;62991;50.040;18.400;2023-02-08T15:49:39;30.55;;;11.50;;
74510;SDS011;62991;50.040;18.400;2023-02-08T15:52:42;25.13;;;10.38;;
74510;SDS011;62991;50.040;18.400;2023-02-08T15:55:45;24.10;;;11.20;;
74510;SDS011;62991;50.040;18.400;2023-02-08T15:58:50;34.15;;;11.98;;
74510;SDS011;62991;50.040;18.400;2023-02-08T16:01:56;26.48;;;10.70;;
74510;SDS011;62991;50.040;18.400;2023-02-08T16:05:02;32.03;;;12.25;;
74510;SDS011;62991;50.040;18.400;2023-02-08T16:08:20;27.83;;;10.35;;
74510;SDS011;62991;50.040;18.400;2023-02-08T16:11:32;36.03;;;11.88;;
74510;SDS011;62991;50.040;18.400;2023-02-08T16:14:34;25.23;;;9.25;;
74510;SDS011;62991;50.040;18.400;2023-02-08T16:17:45;29.55;;;11.02;;
74510;SDS011;62991;50.040;18.400;2023-02-08T16:20:54;31.20;;;11.70;;
74510;SDS011;62991;50.040;18.400;2023-02-08T16:27:05;34.20;;;12.82;;
74510;SDS011;62991;50.040;18.400;2023-02-08T16:30:19;32.63;;;11.70;;
74510;SDS011;62991;50.040;18.400;2023-02-08T16:33:21;31.08;;;12.52;;
74510;SDS011;62991;50.040;18.400;2023-02-08T16:36:23;32.13;;;10.52;;
74510;SDS011;62991;50.040;18.400;2023-02-08T16:42:51;26.98;;;11.20;;
74510;SDS011;62991;50.040;18.400;2023-02-08T16:49:10;37.90;;;14.05;;
74510;SDS011;62991;50.040;18.400;2023-02-08T16:52:11;60.47;;;21.70;;
74510;SDS011;62991;50.040;18.400;2023-02-08T16:55:16;52.97;;;19.40;;
74510;SDS011;62991;50.040;18.400;2023-02-08T16:58:18;45.65;;;15.15;;
74510;SDS011;62991;50.040;18.400;2023-02-08T17:01:20;36.92;;;13.95;;
74510;SDS011;62991;50.040;18.400;2023-02-08T17:04:23;37.83;;;14.20;;
74510;SDS011;62991;50.040;18.400;2023-02-08T17:07:24;47.10;;;14.85;;
74510;SDS011;62991;50.040;18.400;2023-02-08T17:10:30;35.13;;;13.95;;
74510;SDS011;62991;50.040;18.400;2023-02-08T17:13:31;43.42;;;14.07;;
74510;SDS011;62991;50.040;18.400;2023-02-08T17:16:32;28.40;;;11.35;;
74510;SDS011;62991;50.040;18.400;2023-02-08T17:19:34;31.27;;;12.13;;
74510;SDS011;62991;50.040;18.400;2023-02-08T17:22:34;46.45;;;16.27;;
74510;SDS011;62991;50.040;18.400;2023-02-08T17:25:35;34.15;;;13.35;;
74510;SDS011;62991;50.040;18.400;2023-02-08T17:28:36;40.08;;;14.88;;
74510;SDS011;62991;50.040;18.400;2023-02-08T17:31:37;40.45;;;14.55;;
74510;SDS011;62991;50.040;18.400;2023-02-08T17:34:38;35.35;;;12.27;;
74510;SDS011;62991;50.040;18.400;2023-02-08T17:37:39;26.05;;;10.70;;
74510;SDS011;62991;50.040;18.400;2023-02-08T17:40:40;34.20;;;11.00;;
74510;SDS011;62991;50.040;18.400;2023-02-08T17:43:42;31.13;;;10.85;;
74510;SDS011;62991;50.040;18.400;2023-02-08T17:46:43;26.10;;;10.30;;
74510;SDS011;62991;50.040;18.400;2023-02-08T17:49:43;29.52;;;12.40;;
74510;SDS011;62991;50.040;18.400;2023-02-08T17:52:44;40.05;;;14.70;;
74510;SDS011;62991;50.040;18.400;2023-02-08T17:55:46;33.25;;;12.90;;
74510;SDS011;62991;50.040;18.400;2023-02-08T17:58:47;27.13;;;11.80;;
74510;SDS011;62991;50.040;18.400;2023-02-08T18:01:48;33.28;;;11.88;;
74510;SDS011;62991;50.040;18.400;2023-02-08T18:04:49;27.77;;;11.65;;
74510;SDS011;62991;50.040;18.400;2023-02-08T18:07:51;32.83;;;12.82;;
74510;SDS011;62991;50.040;18.400;2023-02-08T18:10:53;31.58;;;10.77;;
74510;SDS011;62991;50.040;18.400;2023-02-08T18:13:53;30.85;;;11.52;;
74510;SDS011;62991;50.040;18.400;2023-02-08T18:16:55;32.13;;;12.00;;
74510;SDS011;62991;50.040;18.400;2023-02-08T18:19:57;26.25;;;9.70;;
74510;SDS011;62991;50.040;18.400;2023-02-08T18:22:58;28.45;;;9.65;;
74510;SDS011;62991;50.040;18.400;2023-02-08T18:26:02;29.75;;;12.93;;
74510;SDS011;62991;50.040;18.400;2023-02-08T18:29:08;27.65;;;12.23;;
74510;SDS011;62991;50.040;18.400;2023-02-08T18:32:09;22.20;;;10.13;;
74510;SDS011;62991;50.040;18.400;2023-02-08T18:35:10;20.90;;;8.50;;
74510;SDS011;62991;50.040;18.400;2023-02-08T18:38:10;39.25;;;10.60;;
74510;SDS011;62991;50.040;18.400;2023-02-08T18:41:12;30.23;;;10.38;;
74510;SDS011;62991;50.040;18.400;2023-02-08T18:44:41;47.33;;;14.32;;
74510;SDS011;62991;50.040;18.400;2023-02-08T18:47:41;101.15;;;31.65;;
74510;SDS011;62991;50.040;18.400;2023-02-08T18:50:42;65.93;;;24.95;;
74510;SDS011;62991;50.040;18.400;2023-02-08T18:53:44;48.70;;;17.05;;
74510;SDS011;62991;50.040;18.400;2023-02-08T18:56:50;37.20;;;12.93;;
74510;SDS011;62991;50.040;18.400;2023-02-08T18:59:53;43.53;;;15.20;;
74510;SDS011;62991;50.040;18.400;2023-02-08T19:02:54;30.33;;;10.75;;
74510;SDS011;62991;50.040;18.400;2023-02-08T19:05:55;16.77;;;8.52;;
74510;SDS011;62991;50.040;18.400;2023-02-08T19:09:01;27.83;;;11.07;;
74510;SDS011;62991;50.040;18.400;2023-02-08T19:12:04;26.13;;;10.88;;
74510;SDS011;62991;50.040;18.400;2023-02-08T19:15:06;35.10;;;11.98;;
74510;SDS011;62991;50.040;18.400;2023-02-08T19:18:07;27.85;;;10.65;;
74510;SDS011;62991;50.040;18.400;2023-02-08T19:21:09;41.92;;;13.75;;
74510;SDS011;62991;50.040;18.400;2023-02-08T19:24:13;37.95;;;14.35;;
74510;SDS011;62991;50.040;18.400;2023-02-08T19:27:14;38.22;;;14.00;;
74510;SDS011;62991;50.040;18.400;2023-02-08T19:30:14;43.67;;;15.30;;
74510;SDS011;62991;50.040;18.400;2023-02-08T19:33:17;37.50;;;17.20;;
74510;SDS011;62991;50.040;18.400;2023-02-08T19:36:19;54.10;;;16.77;;
74510;SDS011;62991;50.040;18.400;2023-02-08T19:39:22;73.18;;;24.85;;
74510;SDS011;62991;50.040;18.400;2023-02-08T19:42:24;66.43;;;18.48;;
74510;SDS011;62991;50.040;18.400;2023-02-08T19:45:25;64.15;;;21.60;;
74510;SDS011;62991;50.040;18.400;2023-02-08T19:48:25;41.63;;;15.95;;
74510;SDS011;62991;50.040;18.400;2023-02-08T19:51:27;37.20;;;15.43;;
74510;SDS011;62991;50.040;18.400;2023-02-08T19:54:31;45.67;;;19.33;;
74510;SDS011;62991;50.040;18.400;2023-02-08T19:57:31;44.13;;;17.23;;
74510;SDS011;62991;50.040;18.400;2023-02-08T20:00:32;47.97;;;16.58;;
74510;SDS011;62991;50.040;18.400;2023-02-08T20:03:33;43.58;;;14.73;;
74510;SDS011;62991;50.040;18.400;2023-02-08T20:06:35;48.45;;;16.50;;
74510;SDS011;62991;50.040;18.400;2023-02-08T20:09:40;42.38;;;17.98;;
74510;SDS011;62991;50.040;18.400;2023-02-08T20:12:40;45.38;;;15.80;;
74510;SDS011;62991;50.040;18.400;2023-02-08T20:15:41;43.78;;;16.50;;
74510;SDS011;62991;50.040;18.400;2023-02-08T20:18:43;40.22;;;17.02;;
74510;SDS011;62991;50.040;18.400;2023-02-08T20:21:44;47.00;;;14.32;;
74510;SDS011;62991;50.040;18.400;2023-02-08T20:24:44;47.35;;;15.77;;